Terminal Aerodrome Forecast
Issued by NWS

Home | Current Version | Previous Version | Graphics & Text | Print | Product List | Glossary On
Versions: 1 2 3 4 5 6 7 8 9 10 11 12 13 14 15 16 17
146
FTUS43 KIWX 260522
TAFSBN
TAF
KSBN 260522Z 2606/2706 02004KT P6SM SCT035 BKN050
     FM261100 20006KT 4SM BR SCT100
     FM261300 21009KT P6SM SCT140
     FM270200 19006KT P6SM BKN200=

USA.gov is the U.S. government's official web portal to all federal, state and local government web resources and services.